Time;durP1;ratioP1;P1;durP2;ratioP2;P2;SDS_P1;SDS_P2;PMS_P1;PMS_P2;Temp;Humidity;BMP_temperature;BMP_pressure;BME280_temperature;BME280_humidity;BME280_pressure;Samples;Min_cycle;Max_cycle;Signal;HPM_P1;HPM_P2
2021/12/09 00:01:37;;;;;;;16.30;7.82;;;0.80;99.90;;;;;;4989277;28;20137;-88
2021/12/09 00:04:07;;;;;;;23.70;8.10;;;0.80;99.90;;;;;;5006930;28;20111;-88
2021/12/09 00:06:34;;;;;;;27.17;7.72;;;0.90;99.90;;;;;;4990510;28;20128;-88
2021/12/09 00:09:05;;;;;;;20.15;7.78;;;0.90;99.90;;;;;;4973804;28;20518;-88
2021/12/09 00:11:34;;;;;;;14.63;7.13;;;0.90;99.90;;;;;;4974071;28;20042;-88
2021/12/09 00:14:00;;;;;;;17.17;7.72;;;0.90;99.90;;;;;;4973877;28;20557;-88
2021/12/09 00:16:25;;;;;;;17.17;7.28;;;1.00;99.90;;;;;;4973992;28;20050;-89
2021/12/09 00:18:51;;;;;;;18.30;7.68;;;1.00;99.90;;;;;;4989953;28;20104;-89
2021/12/09 00:21:17;;;;;;;16.50;7.57;;;2.00;99.90;;;;;;4973692;28;20042;-89
2021/12/09 00:23:43;;;;;;;17.17;7.43;;;1.00;99.90;;;;;;4974356;28;20122;-89
2021/12/09 00:26:08;;;;;;;16.85;8.10;;;1.00;99.90;;;;;;4974399;28;20042;-89
2021/12/09 00:28:36;;;;;;;15.00;7.57;;;1.00;99.90;;;;;;4973056;28;20046;-88
2021/12/09 00:31:01;;;;;;;20.98;8.15;;;1.00;99.90;;;;;;4973997;28;20066;-88
2021/12/09 00:33:27;;;;;;;18.63;9.38;;;1.00;99.90;;;;;;4973516;28;20089;-89
2021/12/09 00:35:57;;;;;;;17.60;8.23;;;1.00;99.90;;;;;;4990339;28;20046;-89
2021/12/09 00:38:34;;;;;;;19.10;7.93;;;1.00;99.90;;;;;;4973743;28;20050;-88
2021/12/09 00:41:03;;;;;;;16.67;7.75;;;0.90;99.90;;;;;;4974149;28;20042;-89
2021/12/09 00:43:29;;;;;;;16.15;7.57;;;0.90;99.90;;;;;;4975429;28;20050;-88
2021/12/09 00:45:57;;;;;;;18.35;8.68;;;0.80;99.90;;;;;;4977655;28;20433;-89
2021/12/09 00:48:24;;;;;;;20.23;9.27;;;1.60;99.90;;;;;;4976161;28;20056;-89
2021/12/09 00:50:50;;;;;;;28.23;9.45;;;2.10;99.90;;;;;;4976425;28;20041;-89
2021/12/09 00:53:15;;;;;;;16.92;8.95;;;0.80;99.90;;;;;;4976454;28;20390;-89
2021/12/09 00:55:41;;;;;;;20.88;8.93;;;1.00;99.90;;;;;;4976996;28;20048;-89
2021/12/09 00:58:07;;;;;;;19.23;9.02;;;0.80;99.90;;;;;;4975773;28;20045;-89
2021/12/09 01:00:33;;;;;;;20.13;8.90;;;0.70;99.90;;;;;;4975005;28;20038;-88
2021/12/09 01:02:59;;;;;;;20.42;9.20;;;0.70;99.90;;;;;;4976782;28;20107;-88
2021/12/09 01:05:25;;;;;;;20.98;8.73;;;0.60;99.90;;;;;;4975340;28;20034;-88
2021/12/09 01:07:51;;;;;;;16.50;9.00;;;0.60;99.90;;;;;;4976370;28;20060;-88
2021/12/09 01:10:17;;;;;;;21.73;10.02;;;0.60;99.90;;;;;;4975927;28;20481;-88
2021/12/09 01:12:44;;;;;;;20.20;9.20;;;1.00;99.90;;;;;;4976035;28;20050;-87
2021/12/09 01:15:12;;;;;;;17.35;9.85;;;0.60;99.90;;;;;;4975859;28;20038;-87
2021/12/09 01:17:38;;;;;;;25.95;9.80;;;1.60;99.90;;;;;;4975063;28;20052;-87
2021/12/09 01:20:07;;;;;;;22.98;10.30;;;0.70;99.90;;;;;;4975079;28;20512;-87
2021/12/09 01:22:38;;;;;;;20.15;9.68;;;0.50;99.90;;;;;;4975192;28;20049;-87
2021/12/09 01:25:07;;;;;;;24.83;9.90;;;0.50;99.90;;;;;;4975680;28;20560;-87
2021/12/09 01:27:36;;;;;;;25.60;10.40;;;0.40;99.90;;;;;;4991260;28;20132;-87
2021/12/09 01:30:09;;;;;;;21.23;10.30;;;0.50;99.90;;;;;;4976047;28;20103;-87
2021/12/09 01:32:35;;;;;;;19.27;9.63;;;0.80;99.90;;;;;;4991181;28;20103;-87
2021/12/09 01:35:00;;;;;;;17.55;10.07;;;0.40;99.90;;;;;;4991219;28;20038;-87
2021/12/09 01:37:26;;;;;;;19.77;10.65;;;0.40;99.90;;;;;;4991733;28;20406;-87
2021/12/09 01:39:52;;;;;;;18.77;10.15;;;0.40;99.90;;;;;;4974718;28;20453;-87
2021/12/09 01:42:18;;;;;;;16.90;10.45;;;0.40;99.90;;;;;;4975307;28;20049;-87
2021/12/09 01:44:44;;;;;;;21.88;10.85;;;0.40;99.90;;;;;;4991332;28;20050;-87
2021/12/09 01:47:09;;;;;;;22.58;11.13;;;0.40;99.90;;;;;;4991289;28;20046;-86
2021/12/09 01:49:35;;;;;;;24.00;11.60;;;0.30;99.90;;;;;;4989918;28;20046;-86
2021/12/09 01:52:01;;;;;;;23.60;11.98;;;0.30;99.90;;;;;;4991878;28;20033;-86
2021/12/09 01:54:27;;;;;;;29.42;11.70;;;0.90;99.90;;;;;;4990136;28;20052;-87
2021/12/09 01:56:52;;;;;;;21.98;11.75;;;0.30;99.90;;;;;;4976193;28;20045;-85
2021/12/09 01:59:18;;;;;;;18.80;10.63;;;0.20;99.90;;;;;;4990840;28;20587;-86
2021/12/09 02:01:44;;;;;;;24.85;11.68;;;0.20;99.90;;;;;;4974712;28;20088;-87
2021/12/09 02:04:11;;;;;;;18.15;10.90;;;0.20;99.90;;;;;;4974545;28;20046;-86
2021/12/09 02:06:40;;;;;;;25.17;11.43;;;0.10;99.90;;;;;;4974028;28;20050;-86
2021/12/09 02:09:09;;;;;;;23.15;12.25;;;0.10;99.90;;;;;;4993802;28;20061;-86
2021/12/09 02:11:34;;;;;;;27.23;12.32;;;0.10;99.90;;;;;;4997068;28;20042;-85
2021/12/09 02:14:00;;;;;;;25.58;12.82;;;0.10;99.90;;;;;;4981339;28;20112;-85
2021/12/09 02:16:26;;;;;;;25.10;12.13;;;0.10;99.90;;;;;;4981632;28;20057;-86
2021/12/09 02:18:53;;;;;;;24.38;11.80;;;0.10;99.90;;;;;;4996647;28;20433;-86
2021/12/09 02:21:22;;;;;;;29.92;14.00;;;0.00;99.90;;;;;;4981068;28;20072;-85
2021/12/09 02:23:51;;;;;;;24.45;12.85;;;0.00;99.90;;;;;;4996583;28;20045;-86
2021/12/09 02:26:22;;;;;;;33.20;12.90;;;0.10;99.90;;;;;;4997646;28;20136;-85
2021/12/09 02:28:49;;;;;;;24.25;12.13;;;0.00;99.90;;;;;;4980077;28;20478;-86
2021/12/09 02:31:15;;;;;;;22.35;13.13;;;-0.10;99.90;;;;;;4981280;28;20052;-85
2021/12/09 02:33:40;;;;;;;25.55;13.20;;;-0.10;99.90;;;;;;4979706;28;20049;-85
2021/12/09 02:36:06;;;;;;;28.08;13.32;;;-0.10;99.90;;;;;;4996636;28;20045;-86
2021/12/09 02:38:40;;;;;;;26.58;12.73;;;-0.10;99.90;;;;;;4980315;28;20042;-85
2021/12/09 02:41:09;;;;;;;22.42;12.85;;;-0.10;99.90;;;;;;4996171;28;20509;-85
2021/12/09 02:43:35;;;;;;;27.98;14.45;;;-0.10;99.90;;;;;;4975781;28;20062;-85
2021/12/09 02:46:01;;;;;;;24.48;13.25;;;-0.10;99.90;;;;;;4977948;28;20061;-86
2021/12/09 02:48:27;;;;;;;35.85;14.23;;;-0.10;99.90;;;;;;4976567;28;20046;-85
2021/12/09 02:50:54;;;;;;;29.33;14.05;;;-0.10;99.90;;;;;;4977084;28;20050;-86
2021/12/09 02:53:21;;;;;;;23.65;14.02;;;-0.10;99.90;;;;;;4977404;28;20042;-85
2021/12/09 02:55:47;;;;;;;30.75;14.48;;;-0.10;99.90;;;;;;4976766;28;20054;-85
2021/12/09 02:58:13;;;;;;;26.85;14.43;;;-0.10;99.90;;;;;;4977280;28;20446;-86
2021/12/09 03:00:55;;;;;;;28.75;15.43;;;-0.10;99.90;;;;;;4977041;28;20096;-85
2021/12/09 03:03:20;;;;;;;34.60;15.80;;;-0.10;99.90;;;;;;4991982;28;20519;-86
2021/12/09 03:05:47;;;;;;;26.45;14.15;;;-0.10;99.90;;;;;;4993443;28;20533;-85
2021/12/09 03:08:21;;;;;;;28.75;15.65;;;-0.10;99.90;;;;;;4977340;28;20074;-86
2021/12/09 03:10:47;;;;;;;36.00;16.02;;;0.00;99.90;;;;;;4993154;28;20054;-86
2021/12/09 03:13:12;;;;;;;36.08;16.00;;;0.80;99.90;;;;;;4977116;28;20056;-85
2021/12/09 03:15:38;;;;;;;29.05;15.00;;;0.00;99.90;;;;;;4993482;28;20048;-85
2021/12/09 03:18:04;;;;;;;30.23;16.30;;;0.00;99.90;;;;;;4992170;28;20046;-85
2021/12/09 03:20:30;;;;;;;28.67;14.95;;;0.00;99.90;;;;;;4991079;28;20082;-86
2021/12/09 03:22:55;;;;;;;28.08;14.43;;;-0.10;99.90;;;;;;4990276;28;20074;-86
2021/12/09 03:25:22;;;;;;;29.40;15.63;;;-0.10;99.90;;;;;;4973448;28;20049;-86
2021/12/09 03:27:48;;;;;;;27.63;15.57;;;0.00;99.90;;;;;;4990470;28;20042;-85
2021/12/09 03:30:17;;;;;;;39.50;16.25;;;-0.10;99.90;;;;;;4989083;28;20046;-86
2021/12/09 03:32:43;;;;;;;31.42;15.68;;;-0.10;99.90;;;;;;4989282;28;20472;-86
2021/12/09 03:35:11;;;;;;;34.75;16.98;;;-0.10;99.90;;;;;;4989731;28;20410;-85
2021/12/09 03:37:37;;;;;;;36.33;15.35;;;-0.10;99.90;;;;;;4973527;28;20042;-86
2021/12/09 03:40:06;;;;;;;31.13;15.18;;;-0.10;99.90;;;;;;4973539;28;20051;-86
2021/12/09 03:42:32;;;;;;;29.80;15.75;;;-0.20;99.90;;;;;;4973301;28;20073;-86
2021/12/09 03:44:59;;;;;;;27.83;15.43;;;-0.20;99.90;;;;;;4972791;28;20078;-85
2021/12/09 03:47:27;;;;;;;27.73;15.35;;;-0.20;99.90;;;;;;4989698;28;20056;-85
2021/12/09 03:49:53;;;;;;;37.78;16.70;;;-0.20;99.90;;;;;;4989262;28;20514;-86
2021/12/09 03:52:19;;;;;;;36.17;16.83;;;-0.20;99.90;;;;;;4989331;28;20565;-86
2021/12/09 03:54:46;;;;;;;31.05;16.63;;;-0.20;99.90;;;;;;4972767;28;20129;-85
2021/12/09 03:57:12;;;;;;;32.28;16.13;;;-0.30;99.90;;;;;;4974047;28;20057;-86
2021/12/09 03:59:38;;;;;;;41.97;17.63;;;-0.30;99.90;;;;;;4972388;28;20050;-85
2021/12/09 04:02:05;;;;;;;35.38;16.65;;;-0.30;99.90;;;;;;4989929;28;20409;-86
2021/12/09 04:04:31;;;;;;;29.63;17.05;;;-0.30;99.90;;;;;;4972509;28;20050;-86
2021/12/09 04:06:57;;;;;;;36.08;17.48;;;-0.30;99.90;;;;;;4972791;28;20508;-85
2021/12/09 04:09:23;;;;;;;33.92;16.95;;;0.60;99.90;;;;;;4989587;28;20050;-86
2021/12/09 04:11:51;;;;;;;33.28;17.10;;;-0.30;99.90;;;;;;4972882;28;20046;-86
2021/12/09 04:14:17;;;;;;;41.58;17.77;;;-0.30;99.90;;;;;;4972786;28;20077;-85
2021/12/09 04:16:43;;;;;;;32.17;17.73;;;-0.30;99.90;;;;;;4972911;28;20039;-85
2021/12/09 04:19:10;;;;;;;31.83;16.67;;;-0.30;99.90;;;;;;4988861;28;20046;-85
2021/12/09 04:21:37;;;;;;;38.42;16.48;;;-0.30;99.90;;;;;;4971461;28;20038;-86
2021/12/09 04:24:07;;;;;;;33.75;18.63;;;-0.30;99.90;;;;;;4989017;28;20108;-85
2021/12/09 04:26:35;;;;;;;35.85;17.65;;;-0.30;99.90;;;;;;4973132;28;20274;-87
2021/12/09 04:29:01;;;;;;;33.55;18.15;;;-0.30;99.90;;;;;;4988419;28;20042;-85
2021/12/09 04:31:27;;;;;;;34.00;17.38;;;-0.30;99.90;;;;;;4972786;28;20074;-85
2021/12/09 04:33:53;;;;;;;40.17;18.45;;;-0.30;99.90;;;;;;4971245;28;20088;-86
2021/12/09 04:36:21;;;;;;;38.58;18.17;;;-0.30;99.90;;;;;;4988427;28;20042;-85
2021/12/09 04:38:48;;;;;;;41.70;19.35;;;-0.30;99.90;;;;;;4972372;28;20048;-85
2021/12/09 04:41:15;;;;;;;38.45;17.90;;;-0.30;99.90;;;;;;4972561;28;20482;-86
2021/12/09 04:43:42;;;;;;;42.45;19.90;;;-0.30;99.90;;;;;;4972204;28;20096;-86
2021/12/09 04:46:09;;;;;;;36.80;18.20;;;-0.30;99.90;;;;;;4972835;28;20058;-86
2021/12/09 04:48:35;;;;;;;38.28;18.63;;;-0.40;99.90;;;;;;4971310;28;20065;-86
2021/12/09 04:51:01;;;;;;;31.05;17.00;;;-0.40;99.90;;;;;;4972143;28;20478;-86
2021/12/09 04:53:27;;;;;;;34.38;17.35;;;-0.40;99.90;;;;;;4988766;28;20486;-85
2021/12/09 04:55:52;;;;;;;39.55;19.17;;;-0.40;99.90;;;;;;4971582;28;20055;-85
2021/12/09 04:58:18;;;;;;;38.58;17.75;;;-0.50;99.90;;;;;;4972767;28;20042;-85
2021/12/09 05:00:44;;;;;;;34.30;18.00;;;-0.50;99.90;;;;;;4972197;28;20491;-85
2021/12/09 05:03:12;;;;;;;45.75;18.75;;;-0.50;99.90;;;;;;4986858;28;20180;-85
2021/12/09 05:05:44;;;;;;;33.78;18.63;;;-0.50;99.90;;;;;;4972569;28;20042;-86
2021/12/09 05:08:15;;;;;;;40.17;19.70;;;-0.50;99.90;;;;;;4971888;28;20053;-85
2021/12/09 05:10:58;;;;;;;37.88;18.80;;;-0.50;99.90;;;;;;4970266;28;20042;-84
2021/12/09 05:13:27;;;;;;;46.35;19.35;;;-0.50;99.90;;;;;;4972035;28;20081;-85
2021/12/09 05:15:54;;;;;;;39.22;20.15;;;-0.50;99.90;;;;;;4972271;28;20042;-85
2021/12/09 05:18:21;;;;;;;42.08;19.90;;;-0.50;99.90;;;;;;4987038;28;20104;-85
2021/12/09 05:20:47;;;;;;;41.63;19.20;;;-0.50;99.90;;;;;;4971636;28;20050;-85
2021/12/09 05:23:15;;;;;;;40.20;20.77;;;-0.50;99.90;;;;;;4988058;28;20054;-86
2021/12/09 05:25:41;;;;;;;38.63;21.17;;;-0.50;99.90;;;;;;4971896;28;20053;-86
2021/12/09 05:28:09;;;;;;;42.42;21.23;;;-0.40;99.90;;;;;;4988555;28;20065;-86
2021/12/09 05:32:07;;;;;;;45.40;21.60;;;-0.40;99.90;;;;;;4970616;28;20048;-86
2021/12/09 05:33:28;;;;;;;42.75;22.60;;;0.90;99.90;;;;;;4987203;28;20062;-85
2021/12/09 05:35:55;;;;;;;41.38;20.38;;;-0.30;99.90;;;;;;4971893;28;20042;-85
2021/12/09 05:38:20;;;;;;;45.78;22.05;;;-0.30;99.90;;;;;;4971166;28;20375;-85
2021/12/09 05:40:47;;;;;;;43.42;21.95;;;-0.30;99.90;;;;;;4980009;28;20084;-86
2021/12/09 05:43:14;;;;;;;40.00;21.00;;;-0.30;99.90;;;;;;5004563;28;20133;-85
2021/12/09 05:45:41;;;;;;;41.55;21.75;;;-0.30;99.90;;;;;;5009497;28;20045;-85
2021/12/09 05:48:07;;;;;;;44.50;19.38;;;-0.30;99.90;;;;;;5009224;28;20042;-87
2021/12/09 05:50:34;;;;;;;40.00;20.02;;;-0.30;99.90;;;;;;5010783;28;20084;-86
2021/12/09 05:53:00;;;;;;;40.83;20.48;;;-0.40;99.90;;;;;;4990322;28;20048;-86
2021/12/09 05:55:25;;;;;;;44.22;20.45;;;-0.40;99.90;;;;;;4990906;28;20065;-86
2021/12/09 05:57:52;;;;;;;40.80;20.90;;;-0.40;99.90;;;;;;5007455;28;20053;-86
2021/12/09 06:00:18;;;;;;;40.30;19.52;;;-0.50;99.90;;;;;;4973563;28;20493;-85
2021/12/09 06:02:44;;;;;;;40.15;20.52;;;-0.50;99.90;;;;;;4991383;28;20053;-86
2021/12/09 06:05:10;;;;;;;46.50;20.35;;;-0.50;99.90;;;;;;4974449;28;20489;-86
2021/12/09 06:07:36;;;;;;;38.88;20.35;;;-0.50;99.90;;;;;;4989698;28;20489;-85
2021/12/09 06:10:04;;;;;;;42.00;20.23;;;-0.60;99.90;;;;;;4991036;28;20091;-85
2021/12/09 06:12:29;;;;;;;42.67;20.90;;;-0.60;99.90;;;;;;4990159;28;20046;-86
2021/12/09 06:14:55;;;;;;;48.47;20.42;;;-0.60;99.90;;;;;;4991135;28;20565;-86
2021/12/09 06:17:21;;;;;;;46.80;22.63;;;-0.60;99.90;;;;;;5007301;28;20046;-85
2021/12/09 06:19:46;;;;;;;40.72;20.63;;;-0.60;99.90;;;;;;4989488;28;20050;-86
2021/12/09 06:22:12;;;;;;;44.25;20.77;;;-0.60;99.90;;;;;;5007098;28;20473;-86
2021/12/09 06:24:38;;;;;;;42.08;19.75;;;-0.60;99.90;;;;;;4975174;28;20041;-86
2021/12/09 06:27:06;;;;;;;43.83;20.42;;;-0.70;99.90;;;;;;4974422;28;20485;-86
2021/12/09 06:29:32;;;;;;;45.45;21.83;;;-0.70;99.90;;;;;;4990443;28;20082;-85
2021/12/09 06:31:59;;;;;;;44.33;21.08;;;-0.70;99.90;;;;;;4975059;28;20038;-86
2021/12/09 06:34:24;;;;;;;47.33;22.45;;;-0.80;99.90;;;;;;4973507;28;20815;-85
2021/12/09 06:36:50;;;;;;;47.15;22.25;;;-0.80;99.90;;;;;;4990381;28;20042;-85
2021/12/09 06:39:17;;;;;;;43.22;21.40;;;-0.80;99.90;;;;;;4990431;28;20053;-86
2021/12/09 06:41:44;;;;;;;46.72;23.08;;;-0.50;99.90;;;;;;4973633;28;20037;-86
2021/12/09 06:44:10;;;;;;;41.75;21.60;;;0.00;99.90;;;;;;4990535;28;20065;-85
2021/12/09 06:46:36;;;;;;;47.15;21.50;;;-0.80;99.90;;;;;;4990653;28;20061;-86
2021/12/09 06:49:03;;;;;;;48.95;22.45;;;-0.80;99.90;;;;;;4973006;28;20050;-86
2021/12/09 06:51:29;;;;;;;49.50;21.80;;;0.10;99.90;;;;;;4973157;28;20046;-86
2021/12/09 06:53:56;;;;;;;47.90;20.38;;;-0.80;99.90;;;;;;4990204;28;20081;-86
2021/12/09 06:56:22;;;;;;;46.65;21.55;;;-0.80;99.90;;;;;;4991653;28;20505;-85
2021/12/09 06:58:48;;;;;;;47.97;23.42;;;-0.90;99.90;;;;;;4993759;28;20049;-86
2021/12/09 07:01:14;;;;;;;44.63;22.23;;;-0.90;99.90;;;;;;4978140;28;20045;-86
2021/12/09 07:03:40;;;;;;;51.80;24.10;;;-0.90;99.90;;;;;;4976366;28;20050;-85
2021/12/09 07:06:08;;;;;;;47.35;24.40;;;-0.80;99.90;;;;;;4993935;28;20140;-85
2021/12/09 07:08:42;;;;;;;48.13;22.63;;;-0.80;99.90;;;;;;4977350;28;20501;-85
2021/12/09 07:11:08;;;;;;;50.95;23.58;;;-0.80;99.90;;;;;;4977561;28;20045;-85
2021/12/09 07:13:34;;;;;;;54.72;22.42;;;-0.80;99.90;;;;;;4977330;28;20042;-85
2021/12/09 07:16:00;;;;;;;46.60;23.23;;;-0.80;99.90;;;;;;4976622;28;20042;-85
2021/12/09 07:18:26;;;;;;;50.80;23.23;;;-0.80;99.90;;;;;;4976695;28;20100;-86
2021/12/09 07:20:54;;;;;;;49.20;22.90;;;-0.80;99.90;;;;;;4977084;28;20049;-86
2021/12/09 07:23:19;;;;;;;48.42;24.60;;;-0.80;99.90;;;;;;4993288;28;20053;-87
2021/12/09 07:25:45;;;;;;;55.30;23.98;;;-0.70;99.90;;;;;;4977504;28;20042;-84
2021/12/09 07:28:11;;;;;;;46.83;22.70;;;-0.70;99.90;;;;;;4993535;28;20038;-86
2021/12/09 07:30:37;;;;;;;45.95;22.83;;;-0.70;99.90;;;;;;4994572;28;20509;-87
2021/12/09 07:33:03;;;;;;;54.35;23.00;;;-0.70;99.90;;;;;;4996344;28;20045;-86
2021/12/09 07:35:30;;;;;;;49.13;22.95;;;-0.70;99.90;;;;;;5013100;28;20132;-86
2021/12/09 07:38:01;;;;;;;47.78;22.60;;;-0.70;99.90;;;;;;5003595;28;20302;-86
2021/12/09 07:40:27;;;;;;;48.92;23.17;;;-0.40;99.90;;;;;;4985503;28;20436;-86
2021/12/09 07:42:53;;;;;;;53.53;23.77;;;-0.70;99.90;;;;;;5004906;28;20136;-86
2021/12/09 07:45:20;;;;;;;57.38;24.77;;;-0.70;99.90;;;;;;4984188;28;20077;-86
2021/12/09 07:47:47;;;;;;;48.72;22.90;;;-0.70;99.90;;;;;;4986861;28;20041;-86
2021/12/09 07:50:17;;;;;;;52.60;23.48;;;-0.70;99.90;;;;;;4984929;28;20121;-85
2021/12/09 07:52:44;;;;;;;51.97;24.38;;;0.10;99.90;;;;;;4991965;28;20073;-86
2021/12/09 07:55:11;;;;;;;48.33;23.77;;;-0.60;99.90;;;;;;4980642;28;20556;-85
2021/12/09 07:57:37;;;;;;;43.63;23.52;;;-0.60;99.90;;;;;;4991414;28;20099;-86
2021/12/09 08:00:07;;;;;;;49.03;23.00;;;0.50;99.90;;;;;;5011917;28;20041;-85
2021/12/09 08:02:33;;;;;;;57.83;23.42;;;-0.50;99.90;;;;;;5012418;28;20049;-86
2021/12/09 08:04:58;;;;;;;50.40;22.27;;;-0.50;99.90;;;;;;5011829;28;20055;-86
2021/12/09 08:07:24;;;;;;;45.60;24.27;;;0.20;99.90;;;;;;4995769;28;20046;-87
2021/12/09 08:09:51;;;;;;;46.17;22.38;;;-0.50;99.90;;;;;;4996023;28;20041;-86
2021/12/09 08:12:18;;;;;;;46.03;21.90;;;-0.50;99.90;;;;;;4995831;28;20133;-88
2021/12/09 08:14:43;;;;;;;49.35;22.45;;;-0.50;99.90;;;;;;5012548;28;20073;-87
2021/12/09 08:17:13;;;;;;;43.17;22.58;;;-0.50;99.90;;;;;;4996166;28;20122;-86
2021/12/09 08:19:39;;;;;;;47.72;21.67;;;-0.50;99.90;;;;;;4995152;28;20076;-88
2021/12/09 08:22:05;;;;;;;54.15;22.10;;;-0.50;99.90;;;;;;4994399;28;20049;-88
2021/12/09 08:24:31;;;;;;;51.88;23.10;;;-0.40;99.90;;;;;;5006037;28;20080;-87
2021/12/09 08:26:56;;;;;;;51.47;22.23;;;-0.40;99.90;;;;;;5002052;28;20056;-87
2021/12/09 08:29:22;;;;;;;45.38;22.33;;;-0.40;99.90;;;;;;4992221;28;20443;-86
2021/12/09 08:31:48;;;;;;;37.97;22.02;;;-0.40;99.90;;;;;;4995873;28;20547;-88
2021/12/09 08:34:14;;;;;;;46.05;22.90;;;-0.40;99.90;;;;;;4994751;28;20481;-88
2021/12/09 08:36:39;;;;;;;50.00;22.30;;;-0.30;99.90;;;;;;4996267;28;20050;-87
2021/12/09 08:39:06;;;;;;;42.17;22.70;;;-0.30;99.90;;;;;;4993155;28;20042;-86
2021/12/09 08:41:31;;;;;;;50.47;22.65;;;-0.30;99.90;;;;;;5011083;28;20061;-86
2021/12/09 08:43:57;;;;;;;66.53;32.90;;;0.40;99.90;;;;;;4995737;28;20050;-86
2021/12/09 08:46:23;;;;;;;48.00;23.10;;;0.20;99.90;;;;;;5011531;28;20061;-86
2021/12/09 08:48:49;;;;;;;54.00;22.27;;;-0.20;99.90;;;;;;5009882;28;20052;-86
2021/12/09 08:51:15;;;;;;;61.85;24.23;;;-0.30;99.90;;;;;;4986864;28;20084;-86
2021/12/09 08:53:42;;;;;;;48.08;22.75;;;-0.20;99.90;;;;;;4991833;28;20057;-85
2021/12/09 08:56:07;;;;;;;42.67;21.83;;;-0.20;99.90;;;;;;4975599;28;20045;-87
2021/12/09 08:58:33;;;;;;;49.33;20.95;;;-0.20;99.90;;;;;;4975546;28;20060;-87
2021/12/09 09:01:00;;;;;;;39.40;20.95;;;-0.20;99.90;;;;;;4992126;28;20069;-86
2021/12/09 09:03:27;;;;;;;45.47;21.63;;;-0.10;99.90;;;;;;4992378;28;20302;-86
2021/12/09 09:05:53;;;;;;;38.88;20.67;;;-0.10;99.90;;;;;;4991869;28;20042;-87
2021/12/09 09:08:19;;;;;;;45.38;21.98;;;-0.10;99.90;;;;;;4991701;28;20104;-87
2021/12/09 09:10:46;;;;;;;46.13;23.20;;;0.00;99.90;;;;;;4975166;28;20486;-87
2021/12/09 09:13:14;;;;;;;47.17;22.08;;;-0.10;99.90;;;;;;4984466;28;20042;-87
2021/12/09 09:15:40;;;;;;;39.20;21.63;;;0.00;99.90;;;;;;4991583;28;20816;-87
2021/12/09 09:18:07;;;;;;;38.20;20.60;;;1.30;99.90;;;;;;4991224;28;20042;-86
2021/12/09 09:20:38;;;;;;;43.65;20.58;;;0.10;99.90;;;;;;4990192;28;20054;-87
2021/12/09 09:23:06;;;;;;;42.45;19.38;;;0.10;99.90;;;;;;4977661;28;20049;-87
2021/12/09 09:25:31;;;;;;;40.65;18.98;;;0.10;99.90;;;;;;4991560;28;20129;-87
2021/12/09 09:27:59;;;;;;;40.83;19.27;;;0.10;99.90;;;;;;4990914;28;20129;-86
2021/12/09 09:30:34;;;;;;;43.45;19.27;;;0.20;99.90;;;;;;4990939;28;20053;-87
2021/12/09 09:33:00;;;;;;;43.20;18.02;;;0.20;99.90;;;;;;4975418;28;20077;-87
2021/12/09 09:35:27;;;;;;;33.97;16.75;;;0.30;99.90;;;;;;4992020;28;20050;-86
2021/12/09 09:37:52;;;;;;;39.53;18.33;;;0.30;99.90;;;;;;4974808;28;20128;-86
2021/12/09 09:40:27;;;;;;;35.17;18.02;;;0.30;99.90;;;;;;4975436;28;20140;-85
2021/12/09 09:43:02;;;;;;;33.17;17.05;;;0.40;99.90;;;;;;4992278;28;20038;-88
2021/12/09 09:45:30;;;;;;;32.50;15.50;;;0.50;99.90;;;;;;4986878;28;20417;-88
2021/12/09 09:47:56;;;;;;;35.42;16.30;;;0.60;99.90;;;;;;4972466;28;20069;-88
2021/12/09 09:50:34;;;;;;;39.67;15.48;;;0.60;99.90;;;;;;4973151;28;20046;-88
2021/12/09 09:53:00;;;;;;;35.50;16.65;;;0.70;99.90;;;;;;4988644;28;20425;-88
2021/12/09 09:55:26;;;;;;;32.40;14.90;;;1.90;99.90;;;;;;4972219;28;20043;-88
2021/12/09 09:57:52;;;;;;;30.23;14.15;;;1.30;99.90;;;;;;4988212;28;20792;-87
2021/12/09 10:00:21;;;;;;;35.42;15.55;;;1.70;99.90;;;;;;4971744;28;20136;-88
2021/12/09 10:02:52;;;;;;;35.00;15.20;;;1.90;99.90;;;;;;4972606;28;20101;-88
2021/12/09 10:05:22;;;;;;;31.58;13.02;;;1.00;99.90;;;;;;4970875;28;20405;-89
2021/12/09 10:07:50;;;;;;;29.38;13.77;;;2.30;99.90;;;;;;4972421;28;20054;-89
2021/12/09 10:10:16;;;;;;;26.55;14.07;;;2.20;99.90;;;;;;4970725;28;20046;-89
2021/12/09 10:12:58;;;;;;;26.92;12.80;;;2.10;99.90;;;;;;4988579;28;20042;-89
2021/12/09 10:15:41;;;;;;;28.33;13.68;;;1.30;99.90;;;;;;4973077;28;20046;-90
2021/12/09 10:18:08;;;;;;;26.85;12.15;;;0.90;99.90;;;;;;4989225;28;20050;-90
2021/12/09 10:20:45;;;;;;;25.80;12.13;;;1.40;99.90;;;;;;4971499;28;20050;-90
2021/12/09 10:23:31;;;;;;;30.08;13.15;;;1.40;99.90;;;;;;4995668;28;20045;-91
2021/12/09 10:26:17;;;;;;;23.98;12.05;;;1.40;99.90;;;;;;4992027;28;20100;-91
2021/12/09 10:28:50;;;;;;;24.00;12.15;;;1.50;99.90;;;;;;4991879;28;20081;-92
2021/12/09 10:31:19;;;;;;;;;;;1.60;99.90;;;;;;4996282;28;20057;-92
2021/12/09 10:34:12;;;;;;;24.23;11.50;;;1.60;99.90;;;;;;4995453;28;20016;-92
2021/12/09 10:36:46;;;;;;;26.23;11.63;;;1.70;99.90;;;;;;4996636;28;20050;-92
2021/12/09 10:39:25;;;;;;;19.08;10.60;;;1.70;99.90;;;;;;4996621;28;20049;-91
2021/12/09 10:41:53;;;;;;;27.23;11.73;;;1.80;99.90;;;;;;4996133;28;20049;-93
2021/12/09 10:44:31;;;;;;;23.33;10.70;;;2.10;99.90;;;;;;4996028;28;20140;-92
2021/12/09 10:47:07;;;;;;;20.95;11.07;;;1.70;99.90;;;;;;5011961;28;20498;-92
2021/12/09 10:49:40;;;;;;;22.05;11.30;;;2.80;99.90;;;;;;4995711;28;20049;-92
2021/12/09 10:52:36;;;;;;;21.42;10.63;;;2.00;99.90;;;;;;4995829;28;20539;-92
2021/12/09 10:55:11;;;;;;;24.42;11.00;;;3.30;99.90;;;;;;4995732;28;20597;-92
2021/12/09 10:57:55;;;;;;;25.73;10.40;;;2.00;99.90;;;;;;4995817;28;20192;-92
2021/12/09 11:00:26;;;;;;;23.20;11.07;;;2.10;99.90;;;;;;4994642;28;20050;-93
2021/12/09 11:03:07;;;;;;;24.35;11.13;;;2.10;99.90;;;;;;4995018;28;20038;-92
2021/12/09 11:05:35;;;;;;;23.15;11.55;;;3.40;99.90;;;;;;5011465;28;20061;-91
2021/12/09 11:08:14;;;;;;;31.08;11.13;;;2.20;99.90;;;;;;4995802;28;20066;-92
2021/12/09 11:10:46;;;;;;;24.42;11.57;;;2.20;99.90;;;;;;5012039;28;20046;-93
2021/12/09 11:13:12;;;;;;;29.80;10.77;;;2.30;99.90;;;;;;4991822;28;20232;-91
2021/12/09 11:15:50;;;;;;;22.02;11.60;;;2.90;99.90;;;;;;4991439;28;20046;-90
2021/12/09 11:18:38;;;;;;;24.02;11.88;;;2.40;99.90;;;;;;4975123;28;20046;-90
2021/12/09 11:21:17;;;;;;;26.65;11.98;;;2.40;99.90;;;;;;4992462;28;20581;-90
2021/12/09 11:23:56;;;;;;;32.33;13.27;;;2.40;99.90;;;;;;4975377;28;20057;-91
2021/12/09 11:26:37;;;;;;;28.13;12.98;;;2.40;99.90;;;;;;4975279;28;20132;-90
2021/12/09 11:29:10;;;;;;;24.55;13.57;;;2.50;99.90;;;;;;4990871;28;20077;-90
2021/12/09 11:31:47;;;;;;;23.92;12.63;;;3.50;99.90;;;;;;4975705;28;20529;-89
2021/12/09 11:34:17;;;;;;;33.42;14.70;;;2.40;99.90;;;;;;4975044;28;20532;-89
2021/12/09 11:36:49;;;;;;;22.55;13.25;;;2.70;99.90;;;;;;4990928;28;20361;-90
2021/12/09 11:39:22;;;;;;;25.70;13.90;;;2.40;99.90;;;;;;4975342;28;20507;-90
2021/12/09 11:41:49;;;;;;;28.48;13.38;;;3.60;99.90;;;;;;4974722;28;20497;-89
2021/12/09 11:44:15;;;;;;;33.80;13.43;;;3.80;99.90;;;;;;4973871;28;20133;-89
2021/12/09 11:46:44;;;;;;;29.95;14.40;;;2.40;99.90;;;;;;4975612;28;20046;-92
2021/12/09 11:49:11;;;;;;;22.45;12.82;;;3.60;99.90;;;;;;4975224;28;20053;-91
2021/12/09 11:51:38;;;;;;;25.23;12.65;;;3.40;99.90;;;;;;4977622;28;20133;-88
2021/12/09 11:54:06;;;;;;;37.55;13.80;;;2.50;99.90;;;;;;4984533;28;20053;-89
2021/12/09 12:07:19;;;;;;;38.65;15.18;;;3.00;99.90;;;;;;5004737;28;20046;-90
2021/12/09 12:12:26;;;;;;;35.38;15.88;;;3.20;99.90;;;;;;5010189;28;20490;-89
2021/12/09 12:14:57;;;;;;;35.58;15.98;;;3.10;99.90;;;;;;4992730;28;20057;-87
2021/12/09 12:20:05;;;;;;;45.85;18.27;;;2.50;99.90;;;;;;5011724;28;20468;-89
2021/12/09 12:25:24;;;;;;;39.92;16.73;;;2.30;99.90;;;;;;5001223;28;20045;-88
2021/12/09 12:27:59;;;;;;;;;;;3.30;99.90;;;;;;4983262;28;20505;-88
2021/12/09 12:31:07;;;;;;;45.30;17.65;;;2.40;99.90;;;;;;4999724;28;20021;-89
2021/12/09 12:34:03;;;;;;;40.05;15.95;;;2.40;99.90;;;;;;4982828;28;20039;-89
2021/12/09 12:37:09;;;;;;;44.17;17.35;;;2.30;99.90;;;;;;4982806;28;20478;-88
2021/12/09 12:42:17;;;;;;;40.08;17.20;;;2.40;99.90;;;;;;5009772;28;20069;-88
2021/12/09 12:45:02;;;;;;;;;;;2.90;99.90;;;;;;4993044;28;20116;-88
2021/12/09 12:47:36;;;;;;;33.97;15.32;;;2.40;99.90;;;;;;4992268;28;19921;-88
2021/12/09 12:50:10;;;;;;;34.50;14.88;;;2.90;99.90;;;;;;4992623;28;20085;-89
2021/12/09 12:52:38;;;;;;;29.50;14.70;;;2.50;99.90;;;;;;4984358;28;20034;-88
2021/12/09 12:55:13;;;;;;;30.90;14.80;;;2.90;99.90;;;;;;4980637;28;20121;-89
2021/12/09 12:57:45;;;;;;;34.80;15.10;;;2.50;99.90;;;;;;4982410;28;20045;-88
2021/12/09 13:00:15;;;;;;;29.93;14.70;;;2.50;99.90;;;;;;4981328;28;20041;-88
2021/12/09 13:10:46;;;;;;;33.58;15.73;;;3.00;99.90;;;;;;4997459;28;20038;-89